Terminal Aerodrome Forecast
Issued by NWS Bismarck, ND

Home | Current Version | Previous Version | Text Only | Print | Product List | Glossary On
Versions: 1 2 3 4 5 6 7 8 9 10 11 12 13 14 15 16 17 18
000
FTUS43 KBIS 291311 AAA
TAFBIS
TAF AMD
KBIS 291311Z 2913/3012 11004KT P6SM SCT150
      TEMPO 2913/2914 4SM BR
     FM291700 19007KT P6SM SCT140
     FM300200 16007KT P6SM BKN130=

USA.gov is the U.S. government's official web portal to all federal, state and local government web resources and services.